createdAt,value
2023-09-19T00:04:09.572Z,43.75
2023-09-19T00:14:09.564Z,43.9
2023-09-19T00:19:09.578Z,43.81
2023-09-19T00:24:09.567Z,43.87
2023-09-19T00:29:09.583Z,43.86
2023-09-19T00:34:09.585Z,43.87
2023-09-19T00:39:09.587Z,43.89
2023-09-19T00:44:09.588Z,44.28
2023-09-19T00:49:09.578Z,44.27
2023-09-19T00:54:09.593Z,44.32
2023-09-19T00:59:09.581Z,44.17
2023-09-19T01:04:09.596Z,44.27
2023-09-19T01:09:09.598Z,44.32
2023-09-19T01:14:09.649Z,44.46
2023-09-19T01:19:09.603Z,44.4
2023-09-19T01:24:09.592Z,44.6
2023-09-19T01:29:09.607Z,44.64
2023-09-19T01:34:09.596Z,44.62
2023-09-19T01:39:09.611Z,44.38
2023-09-19T01:44:09.612Z,44.46
2023-09-19T01:49:09.602Z,44.35
2023-09-19T01:54:09.617Z,44.65
2023-09-19T01:59:09.606Z,44.65
2023-09-19T02:04:09.620Z,44.87
2023-09-19T02:09:09.622Z,44.9
2023-09-19T02:14:09.625Z,44.87
2023-09-19T02:19:09.627Z,44.93
2023-09-19T02:24:09.616Z,44.5
2023-09-19T02:29:09.630Z,44.17
2023-09-19T02:34:09.619Z,44.41
2023-09-19T02:39:09.635Z,44.13
2023-09-19T02:44:09.636Z,43.96
2023-09-19T02:49:09.626Z,43.65
2023-09-19T02:54:09.641Z,43.68
2023-09-19T02:59:09.629Z,43.84
2023-09-19T03:04:09.644Z,44.05
2023-09-19T03:09:09.646Z,43.98
2023-09-19T03:14:09.649Z,43.87
2023-09-19T03:19:09.697Z,44.14
2023-09-19T03:24:09.640Z,44.27
2023-09-19T03:29:09.653Z,44.25
2023-09-19T03:34:09.643Z,44.22
2023-09-19T03:39:09.658Z,44.35
2023-09-19T03:44:09.659Z,44.51
2023-09-19T03:49:09.662Z,44.44
2023-09-19T03:54:09.664Z,44.53
2023-09-19T03:59:09.653Z,44.65
2023-09-19T04:04:09.668Z,44.69
2023-09-19T04:09:09.656Z,44.43
2023-09-19T04:14:09.672Z,44.38
2023-09-19T04:19:09.673Z,44.21
2023-09-19T04:24:09.663Z,44.24
2023-09-19T04:29:09.678Z,44.11
2023-09-19T04:34:09.665Z,44.12
2023-09-19T04:39:09.682Z,44.01
2023-09-19T04:44:09.683Z,43.82
2023-09-19T04:49:09.685Z,43.48
2023-09-19T04:54:09.687Z,43.59
2023-09-19T04:59:09.677Z,44.12
2023-09-19T05:04:09.691Z,44.07
2023-09-19T05:09:09.680Z,44.42
2023-09-19T05:14:09.743Z,44.18
2023-09-19T05:19:09.697Z,43.94
2023-09-19T05:24:09.699Z,43.59
2023-09-19T05:29:09.701Z,43.65
2023-09-19T05:34:09.690Z,43.54
2023-09-19T05:39:09.705Z,43.36
2023-09-19T05:44:09.692Z,43.61
2023-09-19T05:49:09.709Z,43.38
2023-09-19T05:54:09.711Z,43.18
2023-09-19T05:59:09.700Z,42.95
2023-09-19T06:04:09.714Z,42.98
2023-09-19T06:09:09.703Z,42.52
2023-09-19T06:14:09.718Z,42.66
2023-09-19T06:19:09.720Z,42.97
2023-09-19T06:24:09.722Z,44.2
2023-09-19T06:29:09.724Z,44.93
2023-09-19T06:34:09.713Z,45.21
2023-09-19T06:39:09.793Z,45.24
2023-09-19T06:44:09.717Z,45.23
2023-09-19T06:49:09.732Z,45.56
2023-09-19T06:54:09.733Z,45.51
2023-09-19T06:59:09.784Z,45.08
2023-09-19T07:04:09.737Z,45.33
2023-09-19T07:09:09.726Z,45.12
2023-09-19T07:14:09.740Z,44.98
2023-09-19T07:19:09.730Z,44.72
2023-09-19T07:24:09.745Z,44.06
2023-09-19T07:29:09.747Z,43.8
2023-09-19T07:34:18.994Z,43.24
2023-09-19T07:39:09.751Z,42.98
2023-09-19T07:44:09.739Z,43.07
2023-09-19T07:49:09.754Z,42.84
2023-09-19T07:54:09.756Z,42.28
2023-09-19T07:59:09.758Z,41.75
2023-09-19T08:04:09.760Z,39
2023-09-19T08:09:09.749Z,31.41
2023-09-19T08:14:09.764Z,31.41
2023-09-19T08:19:09.753Z,36.56
2023-09-19T08:24:09.769Z,39.77
2023-09-19T08:29:09.770Z,40.53
2023-09-19T08:34:09.761Z,39.39
2023-09-19T08:39:09.775Z,39.94
2023-09-19T08:44:09.764Z,41.2
2023-09-19T08:49:09.779Z,38.4
2023-09-19T08:54:09.782Z,37.94
2023-09-19T08:59:09.785Z,35.6
2023-09-19T09:04:09.834Z,38.09
2023-09-19T09:09:09.776Z,37.33
2023-09-19T09:14:09.792Z,33.98
2023-09-19T09:19:09.781Z,36.44
2023-09-19T09:24:09.796Z,40.91
2023-09-19T09:29:09.799Z,42.46
2023-09-19T09:34:09.801Z,43.09
2023-09-19T09:39:09.802Z,43.32
2023-09-19T09:44:09.793Z,42.57
2023-09-19T09:49:09.807Z,40.62
2023-09-19T09:54:09.797Z,39.38
2023-09-19T09:59:09.813Z,33.04
2023-09-19T10:04:09.815Z,30.66
2023-09-19T10:09:09.805Z,31.5
2023-09-19T10:14:09.821Z,31.19
2023-09-19T10:19:09.810Z,31.72
2023-09-19T10:29:09.829Z,35.74
2023-09-19T10:34:09.832Z,37.09
2023-09-19T10:39:09.835Z,35.56
2023-09-19T10:44:09.825Z,35.95
2023-09-19T10:49:09.839Z,41.14
2023-09-19T10:54:09.829Z,42.92
2023-09-19T10:59:09.845Z,42.78
2023-09-19T11:04:09.848Z,39.2
2023-09-19T11:09:09.858Z,41.7
2023-09-19T11:14:09.853Z,40.24
2023-09-19T11:19:09.842Z,41.86
2023-09-19T11:24:09.857Z,37.73
2023-09-19T11:29:09.845Z,37.06
2023-09-19T11:34:09.863Z,37.94
2023-09-19T11:39:09.866Z,40.1
2023-09-19T11:44:09.855Z,40.2
2023-09-19T11:49:09.871Z,35.56
2023-09-19T11:54:09.860Z,34.16
2023-09-19T11:59:09.875Z,33.38
2023-09-19T12:04:09.879Z,32.93
2023-09-19T12:09:09.882Z,34.43
2023-09-19T12:14:09.885Z,34.99
2023-09-19T12:19:09.875Z,35.01
2023-09-19T12:24:09.890Z,35.05
2023-09-19T12:29:09.880Z,34.19
2023-09-19T12:34:09.896Z,34.62
2023-09-19T12:39:09.899Z,34.19
2023-09-19T12:44:09.889Z,33.23
2023-09-19T12:49:09.904Z,33.93
2023-09-19T12:54:09.894Z,34.7
2023-09-19T12:59:09.910Z,39.68
2023-09-19T13:04:09.900Z,37.75
2023-09-19T13:09:09.917Z,36.51
2023-09-19T13:14:09.919Z,34.52
2023-09-19T13:19:09.910Z,34.44
2023-09-19T13:24:09.925Z,33.7
2023-09-19T13:29:09.915Z,34.9
2023-09-19T13:34:09.930Z,34.24
2023-09-19T13:39:09.934Z,31.88
2023-09-19T13:44:09.937Z,32.53
2023-09-19T13:49:09.940Z,36.72
2023-09-19T13:54:09.930Z,41.57
2023-09-19T13:59:09.946Z,44.45
2023-09-19T14:04:09.934Z,42.6
2023-09-19T14:09:09.951Z,43.29
2023-09-19T14:14:09.954Z,43.17
2023-09-19T14:19:09.944Z,45.23
2023-09-19T14:24:09.959Z,46.82
2023-09-19T14:29:09.947Z,46.89
2023-09-19T14:34:09.964Z,42.87
2023-09-19T14:39:09.954Z,42.36
2023-09-19T14:44:09.970Z,43.17
2023-09-19T14:49:09.972Z,44.25
2023-09-19T14:54:09.962Z,45.62
2023-09-19T14:59:10.003Z,45.25
2023-09-19T15:04:09.965Z,45.72
2023-09-19T15:09:09.982Z,45.77
2023-09-19T15:14:19.243Z,45.27
2023-09-19T15:19:10.035Z,45.03
2023-09-19T15:24:09.989Z,45.22
2023-09-19T15:29:09.979Z,45.34
2023-09-19T15:34:09.994Z,45.16
2023-09-19T15:39:09.984Z,44.32
2023-09-19T15:44:10.000Z,44.07
2023-09-19T15:49:10.002Z,43.97
2023-09-19T15:54:09.992Z,44.05
2023-09-19T15:59:10.007Z,44.51
2023-09-19T16:04:09.996Z,44.77
2023-09-19T16:09:10.011Z,44.6
2023-09-19T16:14:10.014Z,44.53
2023-09-19T16:19:10.016Z,44.55
2023-09-19T16:24:10.019Z,44.54
2023-09-19T16:29:10.008Z,44.95
2023-09-19T16:34:10.023Z,45.41
2023-09-19T16:39:10.012Z,45.23
2023-09-19T16:44:10.028Z,45.02
2023-09-19T16:49:10.030Z,45.12
2023-09-19T16:54:10.020Z,45.34
2023-09-19T16:59:10.035Z,45.63
2023-09-19T17:04:10.024Z,45.25
2023-09-19T17:09:10.039Z,45.49
2023-09-19T17:14:10.042Z,45.21
2023-09-19T17:19:10.044Z,45.55
2023-09-19T17:24:10.046Z,45.4
2023-09-19T17:29:10.036Z,45.48
2023-09-19T17:34:10.051Z,46.12
2023-09-19T17:39:10.040Z,46.37
2023-09-19T17:44:10.055Z,47.1
2023-09-19T17:49:10.057Z,47.39
2023-09-19T17:54:10.060Z,47.69
2023-09-19T17:59:10.062Z,47.96
2023-09-19T18:04:10.051Z,47.86
2023-09-19T18:09:10.065Z,47.83
2023-09-19T18:14:10.054Z,47.2
2023-09-19T18:19:10.070Z,46.73
2023-09-19T18:24:10.071Z,46.75
2023-09-19T18:29:10.061Z,46.6
2023-09-19T18:34:10.076Z,46.83
2023-09-19T18:39:10.064Z,46.72
2023-09-19T18:44:10.080Z,46.71
2023-09-19T18:49:10.082Z,46.54
2023-09-19T18:54:10.084Z,47.05
2023-09-19T18:59:10.148Z,46.78
2023-09-19T19:04:10.075Z,46.63
2023-09-19T19:09:10.091Z,46.62
2023-09-19T19:14:10.078Z,46.37
2023-09-19T19:19:10.093Z,46.29
2023-09-19T19:24:10.095Z,46.34
2023-09-19T19:29:10.097Z,46.16
2023-09-19T19:34:10.099Z,46.15
2023-09-19T19:39:10.088Z,46.29
2023-09-19T19:44:10.101Z,46.36
2023-09-19T19:49:10.091Z,46.09
2023-09-19T19:54:10.106Z,45.81
2023-09-19T19:59:10.107Z,45.95
2023-09-19T20:04:10.097Z,45.95
2023-09-19T20:09:10.111Z,45.85
2023-09-19T20:14:10.100Z,45.86
2023-09-19T20:19:10.114Z,45.57
2023-09-19T20:24:10.116Z,46.02
2023-09-19T20:29:10.119Z,46.43
2023-09-19T20:34:10.184Z,46.19
2023-09-19T20:39:10.109Z,45.96
2023-09-19T20:44:10.123Z,45.92
2023-09-19T20:49:10.112Z,45.81
2023-09-19T20:54:10.127Z,46.3
2023-09-19T20:59:10.129Z,46.39
2023-09-19T21:04:10.131Z,45.83
2023-09-19T21:09:10.133Z,45.7
2023-09-19T21:14:10.122Z,45.85
2023-09-19T21:19:10.136Z,46.11
2023-09-19T21:24:10.124Z,45.99
2023-09-19T21:29:10.139Z,45.88
2023-09-19T21:34:10.140Z,46.08
2023-09-19T21:39:10.130Z,45.83
2023-09-19T21:44:10.144Z,45.78
2023-09-19T21:49:10.132Z,45.99
2023-09-19T21:54:10.148Z,45.84
2023-09-19T21:59:10.148Z,45.7
2023-09-19T22:04:10.151Z,45.29
2023-09-19T22:09:10.153Z,45.13
2023-09-19T22:14:10.141Z,45.48
2023-09-19T22:19:10.155Z,45.88
2023-09-19T22:24:10.144Z,45.4
2023-09-19T22:29:10.222Z,45.05
2023-09-19T22:34:10.161Z,44.95
2023-09-19T22:39:10.162Z,44.83
2023-09-19T22:44:14.882Z,44.94
2023-09-19T22:49:10.152Z,44.69
2023-09-19T22:54:19.425Z,44.95
2023-09-19T22:59:10.169Z,44.7
2023-09-19T23:04:10.170Z,45.11
2023-09-19T23:09:10.218Z,44.95
2023-09-19T23:19:10.175Z,45.61
2023-09-19T23:24:10.163Z,45.48
2023-09-19T23:29:10.178Z,45.23
2023-09-19T23:34:10.180Z,44.87
2023-09-19T23:39:10.182Z,44.85
2023-09-19T23:44:12.655Z,44.94
2023-09-19T23:49:10.172Z,45.09
2023-09-19T23:54:10.186Z,44.89
2023-09-19T23:59:10.174Z,45.03
